Time;durP1;ratioP1;P1;durP2;ratioP2;P2;SDS_P1;SDS_P2;PMS_P1;PMS_P2;Temp;Humidity;BMP_temperature;BMP_pressure;BME280_temperature;BME280_humidity;BME280_pressure;Samples;Min_cycle;Max_cycle;Signal;HPM_P1;HPM_P2
2021/06/17 00:01:44;;;;;;;24.85;3.97;;;;;;;21.81;51.00;98633.88;5078579;28;20428;-76
2021/06/17 00:04:10;;;;;;;13.23;3.95;;;;;;;21.80;51.17;98626.78;5041869;28;20065;-76
2021/06/17 00:06:36;;;;;;;12.85;4.35;;;;;;;21.80;51.36;98634.94;5058351;28;20506;-78
2021/06/17 00:09:03;;;;;;;13.85;4.32;;;;;;;21.78;51.37;98634.31;5058518;28;20124;-76
2021/06/17 00:11:29;;;;;;;8.32;4.03;;;;;;;21.68;51.47;98617.59;5058740;28;20056;-77
2021/06/17 00:13:55;;;;;;;8.68;3.95;;;;;;;21.74;51.29;98630.31;5041525;28;20041;-76
2021/06/17 00:16:22;;;;;;;14.27;4.13;;;;;;;21.71;51.41;98636.22;5058295;28;20044;-77
2021/06/17 00:18:48;;;;;;;9.55;3.70;;;;;;;21.63;52.07;98639.16;5058165;28;20067;-76
2021/06/17 00:21:14;;;;;;;7.60;4.40;;;;;;;21.57;52.19;98629.94;5058210;28;20067;-76
2021/06/17 00:23:40;;;;;;;10.13;4.07;;;;;;;21.42;52.26;98624.72;5042272;28;20041;-76
2021/06/17 00:26:06;;;;;;;12.68;4.32;;;;;;;21.48;52.02;98637.50;5058664;28;20178;-76
2021/06/17 00:28:32;;;;;;;13.43;4.18;;;;;;;21.45;52.00;98623.50;5041702;28;20036;-75
2021/06/17 00:30:58;;;;;;;12.45;4.45;;;;;;;21.45;52.13;98626.19;5058623;28;20624;-75
2021/06/17 00:33:24;;;;;;;6.85;3.47;;;;;;;21.37;52.13;98632.69;5076091;28;20041;-79
2021/06/17 00:35:50;;;;;;;12.07;4.10;;;;;;;21.39;52.30;98633.31;5058774;28;20499;-76
2021/06/17 00:38:16;;;;;;;8.93;3.97;;;;;;;21.35;52.74;98632.06;5042646;28;20115;-76
2021/06/17 00:40:43;;;;;;;6.55;3.38;;;;;;;21.37;52.51;98629.13;5026241;28;20513;-77
2021/06/17 00:43:09;;;;;;;9.02;3.45;;;;;;;21.26;52.77;98611.53;5025150;28;20052;-77
2021/06/17 00:45:42;;;;;;;9.05;3.42;;;;;;;21.25;52.72;98615.28;5043000;28;20376;-76
2021/06/17 00:48:09;;;;;;;9.13;3.17;;;;;;;21.20;53.07;98612.38;5043928;28;20494;-76
2021/06/17 00:50:49;;;;;;;10.23;4.00;;;;;;;21.26;52.98;98617.81;5060780;28;20075;-76
2021/06/17 00:53:16;;;;;;;10.32;3.65;;;;;;;21.20;52.68;98609.66;5045162;28;20040;-77
2021/06/17 00:55:43;;;;;;;12.60;3.42;;;;;;;21.35;52.71;98623.91;5042690;28;20106;-76
2021/06/17 00:58:10;;;;;;;12.05;3.65;;;;;;;21.41;52.48;98630.41;5024495;28;20410;-76
2021/06/17 01:00:36;;;;;;;9.98;3.80;;;;;;;21.46;52.67;98631.41;5025067;28;20049;-76
2021/06/17 01:03:02;;;;;;;9.23;3.50;;;;;;;21.42;52.73;98611.13;5040958;28;20047;-79
2021/06/17 01:05:28;;;;;;;8.95;3.92;;;;;;;21.54;52.47;98630.38;5060860;28;20104;-75
2021/06/17 01:08:03;;;;;;;12.38;3.67;;;;;;;21.61;52.70;98619.50;5028305;28;20106;-79
2021/06/17 01:10:31;;;;;;;11.75;3.80;;;;;;;21.69;52.32;98617.38;5045356;28;20155;-77
2021/06/17 01:13:09;;;;;;;9.23;3.47;;;;;;;21.75;52.22;98619.25;5077231;28;20048;-76
2021/06/17 01:15:39;;;;;;;12.88;5.15;;;;;;;21.79;52.20;98614.22;5028556;28;20044;-77
2021/06/17 01:18:10;;;;;;;10.95;4.00;;;;;;;21.78;52.92;98615.28;5060366;28;20276;-76
2021/06/17 01:21:03;;;;;;;11.43;3.83;;;;;;;21.86;52.80;98623.22;5060975;28;20403;-77
2021/06/17 01:24:05;;;;;;;14.40;4.35;;;;;;;21.82;52.49;98611.09;5056046;28;20124;-77
2021/06/17 01:27:08;;;;;;;15.05;4.03;;;;;;;21.87;52.60;98616.72;5046754;28;20047;-78
2021/06/17 01:29:34;;;;;;;15.00;4.55;;;;;;;21.96;52.80;98623.59;5047449;28;20040;-77
2021/06/17 01:32:00;;;;;;;14.20;4.40;;;;;;;22.00;53.06;98624.84;5043639;28;20139;-77
2021/06/17 01:34:26;;;;;;;11.90;4.43;;;;;;;21.99;52.79;98615.00;5027214;28;20387;-80
2021/06/17 01:37:01;;;;;;;13.90;5.38;;;;;;;21.78;53.53;98626.16;5010580;28;20526;-78
2021/06/17 01:39:27;;;;;;;14.30;5.50;;;;;;;21.72;53.64;98627.84;5043913;28;20048;-76
2021/06/17 01:41:53;;;;;;;18.40;5.00;;;;;;;21.57;54.55;98598.16;5076490;28;20046;-77
2021/06/17 01:44:20;;;;;;;17.20;6.28;;;;;;;21.52;54.88;98611.56;5058689;28;20051;-79
2021/06/17 01:46:46;;;;;;;16.92;6.55;;;;;;;21.29;55.48;98613.84;5043307;28;20044;-78
2021/06/17 01:49:12;;;;;;;13.43;6.07;;;;;;;21.27;55.66;98607.78;5059423;28;20573;-77
2021/06/17 01:51:38;;;;;;;23.30;6.00;;;;;;;21.25;55.68;98615.28;5042890;28;20451;-78
2021/06/17 01:54:04;;;;;;;18.85;6.70;;;;;;;21.36;54.98;98620.13;5059865;28;20127;-77
2021/06/17 01:56:30;;;;;;;23.58;6.93;;;;;;;21.35;55.18;98618.47;5026431;28;20136;-76
2021/06/17 01:58:57;;;;;;;14.70;6.00;;;;;;;21.39;55.14;98611.56;5059703;28;20126;-76
2021/06/17 02:01:25;;;;;;;16.75;7.82;;;;;;;21.33;55.16;98617.84;5059280;28;20134;-78
2021/06/17 02:03:51;;;;;;;17.73;9.38;;;;;;;21.29;54.62;98613.84;5059546;28;20415;-77
2021/06/17 02:06:18;;;;;;;27.35;11.95;;;;;;;21.31;54.54;98619.91;5042774;28;20048;-77
2021/06/17 02:08:44;;;;;;;31.83;13.10;;;;;;;21.42;54.62;98611.13;5042901;28;20063;-77
2021/06/17 02:11:10;;;;;;;40.08;13.27;;;;;;;21.55;54.67;98604.84;5043510;28;20075;-77
2021/06/17 02:13:36;;;;;;;26.00;12.20;;;;;;;21.67;54.43;98600.44;5026292;28;20039;-80
2021/06/17 02:16:04;;;;;;;24.58;10.55;;;;;;;21.71;54.14;98598.13;5026756;28;20040;-84
2021/06/17 02:18:30;;;;;;;29.50;10.82;;;;;;;21.94;53.74;98601.22;5060718;28;20035;-80
2021/06/17 02:20:56;;;;;;;23.60;10.93;;;;;;;22.15;53.45;98599.28;5026582;28;20429;-81
2021/06/17 02:23:22;;;;;;;29.73;10.48;;;;;;;22.27;52.86;98592.13;5095039;28;20132;-81
2021/06/17 02:25:51;;;;;;;33.40;10.80;;;;;;;22.53;52.79;98602.88;5060130;28;20044;-81
2021/06/17 02:28:20;;;;;;;33.08;10.77;;;;;;;22.60;52.11;98586.47;5060045;28;20040;-83
2021/06/17 02:30:46;;;;;;;31.60;11.27;;;;;;;22.72;52.15;98579.31;5059479;28;20097;-81
2021/06/17 02:33:13;;;;;;;24.35;10.55;;;;;;;22.96;51.54;98594.03;5026547;28;20143;-81
2021/06/17 02:35:42;;;;;;;20.13;10.27;;;;;;;23.11;51.02;98590.16;5027996;28;20474;-85
2021/06/17 02:38:08;;;;;;;23.15;9.02;;;;;;;23.26;50.46;98596.13;5027395;28;20051;-80
2021/06/17 02:40:36;;;;;;;24.33;9.40;;;;;;;23.49;50.23;98590.88;5042417;28;20036;-78
2021/06/17 02:43:06;;;;;;;27.95;11.68;;;;;;;23.59;50.22;98597.72;5059533;28;20486;-79
2021/06/17 02:45:33;;;;;;;26.10;10.68;;;;;;;23.53;50.16;98583.06;5059853;28;20538;-78
2021/06/17 02:47:59;;;;;;;24.00;11.48;;;;;;;23.58;50.52;98582.38;5043941;28;20272;-80
2021/06/17 02:50:25;;;;;;;23.95;11.15;;;;;;;23.50;50.81;98578.06;5025502;28;20036;-79
2021/06/17 02:52:51;;;;;;;34.53;12.55;;;;;;;23.58;50.93;98576.94;5042198;28;20046;-80
2021/06/17 02:55:17;;;;;;;29.48;14.45;;;;;;;23.60;50.90;98572.09;5093360;28;20099;-79
2021/06/17 02:58:21;;;;;;;37.72;19.05;;;;;;;23.74;50.83;98577.22;5075363;28;20514;-79
2021/06/17 03:00:55;;;;;;;29.55;16.08;;;;;;;23.84;50.58;98573.94;5093171;28;20044;-78
2021/06/17 03:03:52;;;;;;;30.83;17.85;;;;;;;24.01;50.15;98567.91;5058557;28;20067;-78
2021/06/17 03:06:27;;;;;;;17.88;11.75;;;;;;;24.16;49.65;98563.72;5024501;28;20056;-78
2021/06/17 03:09:02;;;;;;;16.38;9.77;;;;;;;24.29;48.98;98568.16;5043048;28;20487;-78
2021/06/17 03:11:31;;;;;;;16.65;10.07;;;;;;;24.45;48.54;98564.00;5076197;28;20050;-80
2021/06/17 03:13:58;;;;;;;22.20;10.60;;;;;;;24.62;48.07;98578.66;5025536;28;20059;-80
2021/06/17 03:16:29;;;;;;;23.33;11.35;;;;;;;24.70;47.93;98580.22;5042608;28;20410;-78
2021/06/17 03:18:58;;;;;;;15.77;11.25;;;;;;;24.78;47.73;98571.69;5058261;28;20518;-81
2021/06/17 03:21:24;;;;;;;21.48;12.05;;;;;;;24.72;46.99;98561.72;5025580;28;20047;-78
2021/06/17 03:23:50;;;;;;;21.52;11.32;;;;;;;24.92;47.46;98584.09;5057977;28;20052;-79
2021/06/17 03:26:16;;;;;;;17.10;12.30;;;;;;;25.00;47.45;98574.72;5058585;28;20073;-80
2021/06/17 03:28:43;;;;;;;23.27;14.38;;;;;;;25.02;47.59;98571.78;5025646;28;20140;-79
2021/06/17 03:31:10;;;;;;;29.02;14.73;;;;;;;25.04;47.88;98580.56;5009378;28;20130;-77
2021/06/17 03:33:37;;;;;;;22.15;12.95;;;;;;;25.11;47.45;98581.31;5042506;28;20040;-78
2021/06/17 03:36:05;;;;;;;18.00;11.05;;;;;;;25.24;47.27;98566.59;5025585;28;20032;-79
2021/06/17 03:38:31;;;;;;;29.93;11.50;;;;;;;25.37;46.88;98564.47;5009529;28;20047;-79
2021/06/17 03:40:57;;;;;;;11.70;8.73;;;;;;;25.50;46.40;98568.88;5042044;28;20066;-81
2021/06/17 03:43:23;;;;;;;16.65;7.50;;;;;;;25.63;45.86;98567.78;5041904;28;20562;-78
2021/06/17 03:45:49;;;;;;;16.27;7.82;;;;;;;25.70;45.78;98565.75;5041501;28;20535;-79
2021/06/17 03:48:15;;;;;;;11.38;7.00;;;;;;;25.88;45.41;98570.31;5074893;28;20044;-78
2021/06/17 03:50:41;;;;;;;17.85;6.78;;;;;;;26.01;44.70;98571.94;5041502;28;20134;-78
2021/06/17 03:53:07;;;;;;;11.25;5.47;;;;;;;26.00;44.33;98570.28;5025544;28;20051;-78
2021/06/17 03:55:34;;;;;;;14.40;5.32;;;;;;;25.88;44.84;98573.88;5058180;28;20036;-78
2021/06/17 03:58:00;;;;;;;19.33;4.90;;;;;;;26.04;45.24;98582.41;5057861;28;20178;-79
2021/06/17 04:00:27;;;;;;;18.95;6.10;;;;;;;26.13;45.05;98581.78;5074620;28;20130;-79
2021/06/17 04:02:56;;;;;;;11.65;3.63;;;;;;;26.22;43.41;98587.72;5058205;28;20561;-79
2021/06/17 04:05:22;;;;;;;14.60;4.10;;;;;;;26.27;44.81;98585.09;5041203;28;20054;-77
2021/06/17 04:07:48;;;;;;;16.38;3.85;;;;;;;26.32;44.08;98587.09;5042566;28;20044;-78
2021/06/17 04:10:15;;;;;;;16.48;3.67;;;;;;;26.27;43.80;98574.13;5045201;28;20036;-79
2021/06/17 04:12:41;;;;;;;13.85;3.83;;;;;;;26.30;43.46;98581.88;5045181;28;20043;-79
2021/06/17 04:15:07;;;;;;;6.63;2.78;;;;;;;26.37;41.97;98576.25;5079149;28;20036;-79
2021/06/17 04:17:40;;;;;;;9.80;2.72;;;;;;;26.20;41.91;98584.38;5029831;28;20157;-78
2021/06/17 04:20:07;;;;;;;10.02;2.92;;;;;;;26.26;42.21;98577.94;5062057;28;20097;-77
2021/06/17 04:22:35;;;;;;;9.77;2.80;;;;;;;26.17;42.41;98579.38;5061557;28;20043;-78
2021/06/17 04:25:03;;;;;;;11.48;3.45;;;;;;;26.19;42.95;98569.03;5044994;28;20290;-76
2021/06/17 04:27:29;;;;;;;14.73;3.40;;;;;;;26.34;43.35;98574.81;5045616;28;20052;-79
2021/06/17 04:29:56;;;;;;;11.75;3.03;;;;;;;26.47;43.14;98581.94;5045384;28;20047;-76
2021/06/17 04:32:21;;;;;;;11.20;2.65;;;;;;;26.47;42.16;98575.63;5077762;28;20039;-78
2021/06/17 04:34:50;;;;;;;12.10;2.67;;;;;;;26.39;42.61;98571.34;5044622;28;20097;-79
2021/06/17 04:37:17;;;;;;;;;;;;;;;26.44;42.69;98578.81;5012770;28;20040;-78
2021/06/17 04:39:43;;;;;;;10.23;2.92;;;;;;;26.55;43.80;98575.22;5077855;28;19938;-77
2021/06/17 04:42:10;;;;;;;8.52;2.20;;;;;;;26.64;44.34;98568.28;5044427;28;20521;-78
2021/06/17 04:44:39;;;;;;;8.73;2.28;;;;;;;26.68;44.44;98572.22;5077294;28;20406;-77
2021/06/17 04:47:06;;;;;;;4.65;2.28;;;;;;;26.66;44.80;98571.59;5043855;28;20148;-78
2021/06/17 04:49:34;;;;;;;7.05;2.25;;;;;;;26.71;45.46;98579.94;5044827;28;20566;-78
2021/06/17 04:52:01;;;;;;;12.98;2.50;;;;;;;26.76;45.65;98577.28;5044201;28;20383;-78
2021/06/17 04:54:27;;;;;;;7.53;2.75;;;;;;;26.76;46.10;98569.06;5077500;28;20071;-77
2021/06/17 04:56:53;;;;;;;12.93;2.53;;;;;;;26.76;46.20;98560.00;5044505;28;20048;-78
2021/06/17 04:59:19;;;;;;;6.15;2.53;;;;;;;26.90;46.47;98566.03;5043256;28;20058;-78
2021/06/17 05:01:45;;;;;;;13.35;2.75;;;;;;;26.74;46.87;98570.38;5042992;28;20044;-79
2021/06/17 05:04:11;;;;;;;13.43;2.70;;;;;;;26.68;47.26;98571.38;5059709;28;20115;-80
2021/06/17 05:06:40;;;;;;;4.82;2.10;;;;;;;26.75;47.34;98570.16;5094484;28;20414;-78
2021/06/17 05:11:51;;;;;;;6.50;2.30;;;;;;;26.94;47.32;98557.03;5045333;28;20047;-78
2021/06/17 05:14:18;;;;;;;5.88;2.72;;;;;;;26.99;47.49;98567.25;5059638;28;20044;-77
2021/06/17 05:16:44;;;;;;;12.60;2.67;;;;;;;27.04;48.02;98575.56;5076464;28;20047;-78
2021/06/17 05:19:11;;;;;;;8.43;2.58;;;;;;;27.19;47.84;98586.81;5044260;28;20130;-78
2021/06/17 05:21:37;;;;;;;9.98;2.38;;;;;;;27.03;48.46;98579.41;5059543;28;20125;-78
2021/06/17 05:24:03;;;;;;;7.07;2.60;;;;;;;27.04;48.20;98583.78;5059297;28;20071;-78
2021/06/17 05:26:29;;;;;;;14.95;2.63;;;;;;;27.16;48.55;98589.28;5025929;28;20048;-78
2021/06/17 05:28:55;;;;;;;3.53;2.17;;;;;;;27.05;48.86;98585.47;5042442;28;20040;-78
2021/06/17 05:31:23;;;;;;;9.27;2.38;;;;;;;27.23;48.79;98588.03;5093880;28;20081;-80
2021/06/17 05:33:49;;;;;;;6.32;2.25;;;;;;;27.26;49.09;98582.00;5078191;28;20063;-78
2021/06/17 05:36:15;;;;;;;15.27;2.30;;;;;;;27.36;48.98;98584.94;5028089;28;20047;-80
2021/06/17 05:38:41;;;;;;;5.65;2.20;;;;;;;27.42;49.33;98585.00;5027040;28;20044;-78
2021/06/17 05:41:07;;;;;;;8.75;1.90;;;;;;;27.52;48.88;98585.16;5077579;28;20518;-78
2021/06/17 05:43:33;;;;;;;6.85;2.05;;;;;;;27.47;49.10;98587.84;5027274;28;20046;-78
2021/06/17 05:46:00;;;;;;;8.20;2.60;;;;;;;27.72;48.55;98569.00;5059804;28;20405;-78
2021/06/17 05:48:28;;;;;;;5.32;2.05;;;;;;;27.80;48.88;98587.81;5059759;28;20075;-79
2021/06/17 05:50:55;;;;;;;7.63;2.00;;;;;;;27.67;48.63;98599.13;5059981;28;20139;-78
2021/06/17 05:53:21;;;;;;;7.18;1.90;;;;;;;27.60;49.10;98584.72;5059496;28;20039;-79
2021/06/17 05:55:47;;;;;;;4.50;1.80;;;;;;;27.58;49.17;98600.66;5059453;28;20074;-79
2021/06/17 05:58:13;;;;;;;10.25;1.90;;;;;;;27.61;49.00;98589.16;5042622;28;20495;-78
2021/06/17 06:00:40;;;;;;;4.97;2.10;;;;;;;27.98;48.26;98594.09;5059962;28;20109;-79
2021/06/17 06:03:06;;;;;;;10.27;2.17;;;;;;;27.75;47.28;98600.63;5042475;28;20071;-80
2021/06/17 06:05:32;;;;;;;5.22;1.77;;;;;;;27.89;47.58;98601.13;5042913;28;20127;-80
2021/06/17 06:08:00;;;;;;;8.50;2.17;;;;;;;28.04;47.94;98604.06;5026333;28;20043;-80
2021/06/17 06:10:26;;;;;;;6.97;2.00;;;;;;;28.14;47.61;98620.69;5042916;28;20059;-78
2021/06/17 06:12:52;;;;;;;5.45;2.10;;;;;;;27.98;47.50;98616.06;5042711;28;20285;-80
2021/06/17 06:15:18;;;;;;;9.07;2.20;;;;;;;28.01;47.75;98607.31;5094267;28;20036;-80
2021/06/17 06:17:43;;;;;;;7.60;1.80;;;;;;;27.93;47.37;98602.28;5026154;28;20048;-78
2021/06/17 06:20:10;;;;;;;9.57;2.28;;;;;;;27.89;47.42;98610.19;5042441;28;20127;-77
2021/06/17 06:22:36;;;;;;;7.38;2.30;;;;;;;27.86;48.03;98607.94;5058811;28;20119;-79
2021/06/17 06:25:03;;;;;;;8.77;2.40;;;;;;;27.86;48.37;98605.19;5026054;28;20036;-78
2021/06/17 06:27:31;;;;;;;6.78;2.20;;;;;;;27.96;47.46;98616.34;5058866;28;20043;-77
2021/06/17 06:30:02;;;;;;;6.65;2.00;;;;;;;27.99;47.86;98607.59;5042849;28;20147;-78
2021/06/17 06:32:30;;;;;;;4.68;1.90;;;;;;;28.12;47.76;98605.53;5060766;28;20123;-80
2021/06/17 06:34:58;;;;;;;12.50;2.30;;;;;;;28.14;48.04;98615.22;5042500;28;20067;-80
2021/06/17 06:37:27;;;;;;;8.60;2.30;;;;;;;28.19;48.51;98618.00;5042568;28;20047;-80
2021/06/17 06:39:53;;;;;;;10.82;2.47;;;;;;;28.30;48.30;98602.47;5042735;28;20060;-81
2021/06/17 06:42:19;;;;;;;7.13;2.30;;;;;;;28.38;48.45;98591.06;5075476;28;20466;-81
2021/06/17 06:44:45;;;;;;;7.00;2.38;;;;;;;28.50;48.32;98593.66;5041787;28;20059;-81
2021/06/17 06:47:12;;;;;;;9.13;2.05;;;;;;;28.82;47.47;98598.44;5059290;28;20127;-81
2021/06/17 06:49:38;;;;;;;4.45;2.00;;;;;;;28.86;46.30;98603.16;5058700;28;20181;-79
2021/06/17 06:52:04;;;;;;;6.15;2.30;;;;;;;29.00;46.61;98589.84;5075045;28;20043;-81
2021/06/17 06:54:30;;;;;;;9.00;2.10;;;;;;;29.50;46.01;98594.94;5075268;28;20059;-80
2021/06/17 06:56:56;;;;;;;10.80;2.15;;;;;;;29.70;45.69;98594.25;5058872;28;20043;-81
2021/06/17 06:59:23;;;;;;;7.78;2.10;;;;;;;29.72;45.62;98597.59;5042213;28;20040;-82
2021/06/17 07:01:49;;;;;;;24.42;2.70;;;;;;;30.15;45.30;98584.59;5009588;28;20124;-85
2021/06/17 07:04:16;;;;;;;12.63;4.13;;;;;;;30.40;44.16;98602.38;5025647;28;20147;-87
2021/06/17 07:06:42;;;;;;;4.72;2.17;;;;;;;30.34;44.10;98598.75;5043311;28;20133;-82
2021/06/17 07:09:34;;;;;;;5.60;1.90;;;;;;;30.40;42.82;98596.88;5094852;28;20518;-83
2021/06/17 07:12:04;;;;;;;5.38;1.98;;;;;;;30.40;43.23;98605.16;5057776;28;20147;-85
2021/06/17 07:14:31;;;;;;;7.63;1.73;;;;;;;30.52;42.53;98593.88;5029911;28;20040;-85
2021/06/17 07:16:57;;;;;;;6.47;1.90;;;;;;;30.98;41.96;98602.28;5027691;28;20093;-83
2021/06/17 07:19:23;;;;;;;6.18;1.95;;;;;;;30.63;41.25;98595.56;5042789;28;20043;-81
2021/06/17 07:21:49;;;;;;;7.57;2.13;;;;;;;30.37;42.25;98597.41;5093679;28;20040;-89
2021/06/17 07:24:15;;;;;;;5.70;1.98;;;;;;;30.20;42.49;98570.88;5042404;28;20044;-84
2021/06/17 07:26:41;;;;;;;6.07;1.80;;;;;;;30.53;41.46;98582.56;5076667;28;20077;-80
2021/06/17 07:29:07;;;;;;;5.38;1.98;;;;;;;30.88;41.05;98586.53;5045056;28;20048;-84
2021/06/17 07:31:33;;;;;;;6.97;2.05;;;;;;;30.69;40.91;98598.06;5028081;28;20047;-83
2021/06/17 07:34:00;;;;;;;5.93;2.17;;;;;;;30.32;42.52;98589.13;5046344;28;20048;-86
2021/06/17 07:36:26;;;;;;;6.88;2.10;;;;;;;30.17;43.24;98601.75;5078782;28;20039;-84
2021/06/17 07:38:53;;;;;;;8.38;2.15;;;;;;;29.92;43.29;98607.06;5044773;28;20040;-84
2021/06/17 07:41:20;;;;;;;7.60;2.00;;;;;;;29.50;43.23;98599.63;5058950;28;20135;-81
2021/06/17 07:43:46;;;;;;;12.45;2.33;;;;;;;29.30;44.23;98605.78;5062717;28;20495;-81
2021/06/17 07:46:13;;;;;;;9.63;2.10;;;;;;;28.95;45.52;98620.00;5048232;28;20050;-80
2021/06/17 07:48:39;;;;;;;13.60;2.97;;;;;;;28.75;45.92;98615.97;5028992;28;20066;-81
2021/06/17 07:51:07;;;;;;;8.98;2.22;;;;;;;28.74;46.36;98619.81;5045535;28;20135;-79
2021/06/17 07:53:34;;;;;;;6.45;2.40;;;;;;;28.73;46.75;98609.88;5061620;28;20052;-85
2021/06/17 07:56:00;;;;;;;14.07;3.00;;;;;;;28.56;46.86;98620.16;5062373;28;20044;-79
2021/06/17 07:58:32;;;;;;;7.03;2.45;;;;;;;28.30;47.83;98636.28;5062822;28;20047;-79
2021/06/17 08:00:58;;;;;;;9.80;2.85;;;;;;;28.03;48.71;98630.72;5029113;28;20075;-78
2021/06/17 08:03:26;;;;;;;7.88;2.75;;;;;;;27.78;49.69;98625.69;5047303;28;20464;-78
2021/06/17 08:05:57;;;;;;;10.13;3.50;;;;;;;27.73;50.19;98636.56;5036789;28;20040;-80
2021/06/17 08:08:26;;;;;;;8.85;3.28;;;;;;;27.60;50.42;98625.91;5053588;28;20036;-81
2021/06/17 08:10:52;;;;;;;9.25;3.20;;;;;;;27.57;51.27;98642.91;5035750;28;20036;-81
2021/06/17 08:13:18;;;;;;;6.55;2.80;;;;;;;27.44;51.75;98638.56;5068069;28;20048;-80
2021/06/17 08:15:45;;;;;;;17.65;3.72;;;;;;;27.38;52.08;98639.56;5031288;28;20138;-82
2021/06/17 08:18:11;;;;;;;13.30;3.42;;;;;;;27.44;52.05;98645.97;5046670;28;20048;-82
2021/06/17 08:20:38;;;;;;;16.52;3.70;;;;;;;27.48;51.82;98650.72;5049368;28;20044;-81
2021/06/17 08:23:05;;;;;;;9.97;3.20;;;;;;;27.66;51.57;98637.81;5054621;28;20074;-82
2021/06/17 08:25:32;;;;;;;9.98;3.60;;;;;;;27.97;50.78;98650.13;5043987;28;20603;-80
2021/06/17 08:28:03;;;;;;;8.73;2.95;;;;;;;27.75;51.36;98642.66;5045312;28;20044;-79
2021/06/17 08:30:29;;;;;;;18.08;4.80;;;;;;;27.55;50.92;98631.34;5063054;28;20051;-80
2021/06/17 08:32:55;;;;;;;11.43;3.65;;;;;;;27.62;50.85;98629.25;5061616;28;20047;-78
2021/06/17 08:35:22;;;;;;;13.60;3.15;;;;;;;27.78;50.70;98633.09;5011593;28;20089;-79
2021/06/17 08:37:49;;;;;;;11.15;3.10;;;;;;;27.89;50.70;98647.81;5027981;28;20055;-78
2021/06/17 08:40:16;;;;;;;14.20;3.22;;;;;;;27.67;50.38;98629.31;5060901;28;20084;-88
2021/06/17 08:42:42;;;;;;;11.18;3.42;;;;;;;27.69;49.81;98616.19;5028379;28;20039;-85
2021/06/17 08:45:10;;;;;;;14.15;3.00;;;;;;;27.48;50.79;98622.44;5043996;28;20471;-82
2021/06/17 08:47:37;;;;;;;9.38;2.58;;;;;;;27.48;50.51;98634.25;5061757;28;20092;-80
2021/06/17 08:50:09;;;;;;;6.38;2.95;;;;;;;27.54;50.05;98635.16;5045343;28;20044;-86
2021/06/17 08:52:39;;;;;;;14.30;2.88;;;;;;;27.43;50.05;98633.34;5044884;28;20051;-86
2021/06/17 08:55:21;;;;;;;8.15;3.05;;;;;;;27.05;51.35;98618.41;5043731;28;20233;-82
2021/06/17 08:57:52;;;;;;;9.52;3.35;;;;;;;27.12;52.55;98643.81;5061484;28;20387;-85
2021/06/17 09:00:21;;;;;;;23.15;3.65;;;;;;;27.39;52.86;98649.47;5045095;28;20089;-88
2021/06/17 09:03:02;;;;;;;15.70;3.95;;;;;;;27.65;52.52;98645.22;5064496;28;20089;-84
2021/06/17 09:05:29;;;;;;;19.13;4.25;;;;;;;27.55;53.17;98667.84;5045805;28;20097;-85
2021/06/17 09:07:55;;;;;;;18.23;3.47;;;;;;;27.67;52.59;98651.28;5046612;28;20071;-84
2021/06/17 09:10:21;;;;;;;23.45;4.00;;;;;;;27.80;51.65;98675.72;5031538;28;20473;-84
2021/06/17 09:12:49;;;;;;;30.70;4.20;;;;;;;27.46;52.15;98690.50;5063404;28;20048;-83
2021/06/17 09:15:27;;;;;;;19.27;4.07;;;;;;;27.05;52.52;98681.50;5028486;28;20051;-84
2021/06/17 09:18:15;;;;;;;17.92;4.88;;;;;;;26.88;53.21;98693.22;5028847;28;20048;-85
2021/06/17 09:20:52;;;;;;;15.20;4.70;;;;;;;26.81;53.31;98698.03;5061878;28;20051;-86
2021/06/17 09:23:31;;;;;;;29.13;4.43;;;;;;;26.72;53.15;98713.19;5064903;28;20066;-86
2021/06/17 09:26:03;;;;;;;18.25;4.00;;;;;;;26.40;54.03;98710.88;5061546;28;20514;-87
2021/06/17 09:29:16;;;;;;;9.77;4.00;;;;;;;26.30;54.19;98710.63;5061781;28;20048;-86
2021/06/17 09:31:43;;;;;;;15.82;4.20;;;;;;;26.13;54.61;98718.72;5068644;28;20522;-86
2021/06/17 09:34:14;;;;;;;12.90;3.95;;;;;;;26.09;54.63;98722.19;5029174;28;20469;-85
2021/06/17 09:36:40;;;;;;;10.30;4.07;;;;;;;26.17;54.39;98738.25;5044399;28;20059;-86
2021/06/17 09:39:15;;;;;;;18.58;4.43;;;;;;;26.35;53.76;98762.81;5045900;28;20055;-84
2021/06/17 09:41:42;;;;;;;9.18;4.20;;;;;;;27.17;51.96;98758.28;5032385;28;20131;-85
2021/06/17 09:44:31;;;;;;;20.77;3.88;;;;;;;27.33;51.46;98758.31;5063064;28;20131;-86
2021/06/17 09:47:18;;;;;;;21.33;4.30;;;;;;;27.66;50.57;98756.72;5079047;28;20127;-84
2021/06/17 09:49:45;;;;;;;7.97;3.92;;;;;;;27.65;50.12;98757.81;5046622;28;20051;-84
2021/06/17 09:52:12;;;;;;;15.68;4.13;;;;;;;28.00;50.08;98762.25;5062271;28;20434;-85
2021/06/17 09:54:43;;;;;;;16.38;5.25;;;;;;;28.10;48.91;98778.91;5046604;28;20422;-85
2021/06/17 09:57:19;;;;;;;14.20;5.38;;;;;;;27.77;49.11;98769.56;5069241;28;20048;-84
2021/06/17 09:59:49;;;;;;;12.70;4.28;;;;;;;27.63;49.65;98776.44;5057690;28;20126;-83
2021/06/17 10:02:33;;;;;;;11.60;3.90;;;;;;;27.55;50.10;98765.84;5085317;28;20051;-81
2021/06/17 10:05:19;;;;;;;17.58;4.35;;;;;;;27.84;49.09;98769.41;5049248;28;20098;-84
2021/06/17 10:07:45;;;;;;;14.27;4.00;;;;;;;27.87;49.24;98779.06;5025908;28;20048;-83
2021/06/17 10:10:13;;;;;;;11.18;4.03;;;;;;;27.96;48.06;98783.91;5041904;28;20044;-83
2021/06/17 10:12:39;;;;;;;18.17;4.23;;;;;;;27.73;48.54;98784.84;5042162;28;20052;-81
2021/06/17 10:15:05;;;;;;;14.10;3.88;;;;;;;27.33;49.02;98806.88;5074408;28;20517;-85
2021/06/17 10:17:31;;;;;;;11.93;4.22;;;;;;;26.73;50.36;98829.19;5041014;28;20052;-83
2021/06/17 10:19:58;;;;;;;13.65;4.28;;;;;;;26.25;51.73;98814.63;5074206;28;20036;-81
2021/06/17 10:22:32;;;;;;;13.48;4.20;;;;;;;25.97;52.27;98819.94;5041722;28;20078;-84
2021/06/17 10:24:58;;;;;;;8.88;3.55;;;;;;;26.13;51.27;98797.34;5024505;28;20059;-83
2021/06/17 10:27:37;;;;;;;13.93;4.75;;;;;;;26.44;50.84;98803.53;5041411;28;20040;-84
2021/06/17 10:30:06;;;;;;;12.20;4.28;;;;;;;26.13;51.74;98819.25;5076312;28;20051;-88
2021/06/17 10:32:43;;;;;;;16.42;4.38;;;;;;;26.00;51.84;98811.28;5024764;28;20036;-83
2021/06/17 10:35:09;;;;;;;9.75;5.00;;;;;;;25.84;52.08;98821.84;5043143;28;20040;-85
2021/06/17 10:37:47;;;;;;;18.92;4.43;;;;;;;24.84;53.85;98854.25;5026249;28;20051;-84
2021/06/17 10:40:13;;;;;;;11.60;4.53;;;;;;;24.84;54.63;98811.34;5073589;28;20060;-84
2021/06/17 10:42:45;;;;;;;13.77;5.38;;;;;;;25.43;54.05;98815.25;5073382;28;20044;-84
2021/06/17 10:45:33;;;;;;;9.63;4.80;;;;;;;25.87;51.64;98832.31;5055683;28;20174;-82
2021/06/17 10:48:05;;;;;;;14.38;5.38;;;;;;;25.74;52.39;98809.75;5059079;28;20059;-85
2021/06/17 10:50:39;;;;;;;18.30;5.60;;;;;;;26.12;51.32;98817.59;5039304;28;20043;-85
2021/06/17 10:53:25;;;;;;;9.75;5.50;;;;;;;26.23;50.51;98830.47;5055886;28;20048;-79
2021/06/17 10:56:08;;;;;;;12.30;5.47;;;;;;;25.95;51.52;98811.13;5055857;28;20048;-81
2021/06/17 10:58:40;;;;;;;14.77;5.43;;;;;;;25.84;52.00;98856.56;5041372;28;20135;-81
2021/06/17 11:01:39;;;;;;;18.73;6.25;;;;;;;25.76;52.33;98834.97;5038879;28;20052;-84
2021/06/17 11:04:21;;;;;;;11.10;5.75;;;;;;;25.43;52.67;98823.44;5038637;28;20060;-81
2021/06/17 11:06:55;;;;;;;13.85;6.15;;;;;;;25.41;51.44;98820.09;5039002;28;20483;-81
2021/06/17 11:09:44;;;;;;;10.13;5.22;;;;;;;25.98;50.63;98816.13;5024038;28;20074;-88
2021/06/17 11:12:13;;;;;;;8.43;5.43;;;;;;;26.77;48.68;98841.34;5042173;28;20406;-85
2021/06/17 11:14:40;;;;;;;13.32;5.50;;;;;;;26.34;48.93;98824.16;5039030;28;20194;-87
2021/06/17 11:17:34;;;;;;;18.23;5.88;;;;;;;26.36;49.53;98819.25;5055884;28;20051;-84
2021/06/17 11:20:04;;;;;;;9.00;5.22;;;;;;;27.04;47.43;98776.66;5038697;28;20506;-83
2021/06/17 11:22:49;;;;;;;17.17;5.18;;;;;;;27.54;46.50;98797.13;5022546;28;20586;-84
2021/06/17 11:25:18;;;;;;;6.30;4.15;;;;;;;27.36;47.07;98823.69;5022551;28;20048;-83
2021/06/17 11:28:10;;;;;;;11.23;4.65;;;;;;;27.22;47.59;98822.31;5071891;28;20407;-82
2021/06/17 11:30:39;;;;;;;12.15;5.18;;;;;;;25.84;50.84;98818.25;5023870;28;20040;-82
2021/06/17 11:33:14;;;;;;;11.20;5.20;;;;;;;25.26;51.84;98830.63;5054334;28;20051;-83
2021/06/17 11:35:45;;;;;;;25.70;6.15;;;;;;;25.63;50.89;98822.34;5038550;28;20045;-85
2021/06/17 11:38:14;;;;;;;10.02;5.22;;;;;;;26.08;49.99;98821.88;5055218;28;20569;-83
2021/06/17 11:40:40;;;;;;;15.52;5.00;;;;;;;26.58;48.41;98814.06;5006844;28;20049;-85